Time;durP1;ratioP1;P1;durP2;ratioP2;P2;SDS_P1;SDS_P2;PMS_P1;PMS_P2;Temp;Humidity;BMP_temperature;BMP_pressure;BME280_temperature;BME280_humidity;BME280_pressure;Samples;Min_cycle;Max_cycle;Signal;HPM_P1;HPM_P2
2022/06/22 00:00:55;;;;;;;3.10;2.80;;;25.10;57.00;;;;;;4982703;28;20391;-64
2022/06/22 00:03:20;;;;;;;3.17;2.67;;;25.10;57.10;;;;;;4984482;28;20439;-63
2022/06/22 00:05:49;;;;;;;3.30;2.73;;;25.10;57.00;;;;;;5000151;28;20378;-64
2022/06/22 00:08:27;;;;;;;3.53;2.92;;;25.10;57.10;;;;;;5002221;28;20398;-63
2022/06/22 00:11:13;;;;;;;3.20;2.90;;;25.10;57.00;;;;;;5000905;28;20394;-63
2022/06/22 00:13:46;;;;;;;3.80;3.05;;;25.10;57.00;;;;;;5001799;28;20397;-65
2022/06/22 00:16:23;;;;;;;3.53;2.80;;;25.10;57.00;;;;;;4982953;28;20398;-63
2022/06/22 00:18:50;;;;;;;3.63;3.20;;;25.10;57.10;;;;;;4998939;28;20492;-64
2022/06/22 00:21:25;;;;;;;4.07;3.10;;;25.10;57.10;;;;;;5000748;28;20414;-65
2022/06/22 00:23:55;;;;;;;3.10;2.72;;;25.10;57.10;;;;;;5000164;28;20486;-66
2022/06/22 00:26:24;;;;;;;3.78;3.10;;;25.10;57.00;;;;;;4982104;28;20402;-63
2022/06/22 00:29:02;;;;;;;3.42;2.90;;;25.10;57.00;;;;;;5000947;28;20451;-64
2022/06/22 00:31:41;;;;;;;3.00;2.75;;;25.10;57.10;;;;;;4982230;28;20461;-63
2022/06/22 00:34:09;;;;;;;4.38;3.03;;;25.10;57.10;;;;;;4999564;28;20390;-63
2022/06/22 00:36:55;;;;;;;4.13;2.80;;;25.10;57.70;;;;;;5000310;28;20389;-63
2022/06/22 00:39:21;;;;;;;4.53;3.10;;;25.10;57.10;;;;;;5000750;28;20405;-64
2022/06/22 00:41:58;;;;;;;3.63;3.30;;;25.10;57.10;;;;;;4982059;28;20940;-63
2022/06/22 00:44:33;;;;;;;3.70;3.10;;;25.10;57.10;;;;;;4999647;28;20743;-63
2022/06/22 00:47:33;;;;;;;4.00;2.72;;;25.10;57.10;;;;;;4983828;28;20410;-64
2022/06/22 00:50:18;;;;;;;4.00;3.00;;;25.10;57.10;;;;;;4981889;28;20811;-65
2022/06/22 00:53:01;;;;;;;4.13;2.92;;;25.00;57.10;;;;;;5001761;28;20394;-63
2022/06/22 00:55:37;;;;;;;4.38;3.15;;;25.10;57.10;;;;;;4982276;28;20518;-64
2022/06/22 00:58:15;;;;;;;3.53;3.00;;;25.00;57.00;;;;;;4999084;28;20460;-63
2022/06/22 01:00:54;;;;;;;4.25;3.10;;;25.00;57.10;;;;;;4999335;28;20399;-64
2022/06/22 01:03:22;;;;;;;4.18;3.28;;;25.00;57.00;;;;;;4998863;28;20449;-67
2022/06/22 01:05:56;;;;;;;3.08;2.55;;;25.00;57.10;;;;;;4999681;28;20418;-63
2022/06/22 01:08:27;;;;;;;3.50;2.72;;;25.00;57.00;;;;;;4982477;28;20457;-68
2022/06/22 01:10:56;;;;;;;3.60;2.90;;;25.00;57.10;;;;;;4986418;28;20403;-67
2022/06/22 01:13:25;;;;;;;3.70;2.80;;;25.00;57.00;;;;;;4986954;28;20389;-66
2022/06/22 01:15:57;;;;;;;3.47;2.78;;;25.10;57.10;;;;;;4986182;28;20411;-67
2022/06/22 01:18:31;;;;;;;3.17;2.72;;;25.00;57.10;;;;;;4987573;28;20872;-66
2022/06/22 01:21:21;;;;;;;5.00;2.90;;;25.00;57.10;;;;;;5004385;28;20500;-66
2022/06/22 01:24:05;;;;;;;3.38;3.08;;;25.00;57.00;;;;;;4985436;28;20442;-63
2022/06/22 01:26:43;;;;;;;3.28;2.75;;;25.00;57.00;;;;;;4986029;28;20907;-67
2022/06/22 01:29:26;;;;;;;3.03;2.60;;;25.00;57.00;;;;;;4983974;28;20447;-66
2022/06/22 01:32:13;;;;;;;3.20;2.57;;;25.00;56.90;;;;;;4985883;28;20867;-65
2022/06/22 01:34:44;;;;;;;3.53;2.80;;;25.00;57.00;;;;;;5004152;28;20410;-66
2022/06/22 01:37:22;;;;;;;3.10;2.80;;;25.00;57.00;;;;;;5001595;28;20881;-67
2022/06/22 01:39:48;;;;;;;2.85;2.50;;;25.00;57.00;;;;;;4985096;28;20395;-66
2022/06/22 01:42:50;;;;;;;4.20;3.17;;;25.00;56.90;;;;;;5003508;28;20905;-66
2022/06/22 01:45:15;;;;;;;3.17;2.80;;;25.00;56.90;;;;;;4935277;28;20604;-65
2022/06/22 01:48:14;;;;;;;3.08;2.78;;;25.00;56.90;;;;;;5002444;28;20954;-63
2022/06/22 01:50:48;;;;;;;3.22;2.90;;;25.00;56.90;;;;;;4986027;28;20803;-63
2022/06/22 01:53:33;;;;;;;3.42;2.72;;;25.00;56.90;;;;;;4985425;28;20395;-67
2022/06/22 01:56:12;;;;;;;3.53;2.78;;;25.00;56.90;;;;;;4986128;28;20409;-66
2022/06/22 01:58:59;;;;;;;3.47;2.92;;;25.00;56.90;;;;;;5003649;28;20387;-63
2022/06/22 02:01:38;;;;;;;3.92;2.80;;;25.00;56.90;;;;;;5004722;28;20983;-66
2022/06/22 02:04:25;;;;;;;3.17;2.80;;;25.00;56.90;;;;;;4986656;28;20827;-67
2022/06/22 02:10:25;;;;;;;3.05;2.50;;;25.00;56.90;;;;;;5014222;28;20427;-63
2022/06/22 02:13:01;;;;;;;3.80;3.00;;;24.90;56.80;;;;;;5014036;28;20388;-66
2022/06/22 02:15:47;;;;;;;3.57;2.73;;;25.00;56.90;;;;;;4995896;28;20768;-66
2022/06/22 02:18:21;;;;;;;2.97;2.53;;;24.90;56.80;;;;;;4996685;28;21003;-66
2022/06/22 02:20:48;;;;;;;3.17;2.88;;;25.00;57.40;;;;;;4995001;28;20404;-65
2022/06/22 02:23:30;;;;;;;3.63;2.67;;;24.90;56.80;;;;;;5013267;28;20769;-66
2022/06/22 02:26:20;;;;;;;2.97;2.55;;;24.90;56.80;;;;;;5013807;28;20377;-64
2022/06/22 02:28:47;;;;;;;3.25;2.53;;;24.90;56.80;;;;;;4995873;28;20397;-64
2022/06/22 02:31:13;;;;;;;3.95;2.60;;;24.90;56.80;;;;;;4995743;28;20485;-66
2022/06/22 02:33:42;;;;;;;3.20;2.70;;;24.90;56.80;;;;;;5013653;28;20428;-66
2022/06/22 02:36:10;;;;;;;2.90;2.60;;;24.90;56.90;;;;;;4996077;28;20507;-66
2022/06/22 02:38:37;;;;;;;3.35;2.80;;;24.90;56.80;;;;;;4995805;28;20483;-67
2022/06/22 02:46:35;;;;;;;3.50;2.78;;;24.90;56.80;;;;;;5003674;28;20394;-66
2022/06/22 02:49:12;;;;;;;3.22;2.92;;;24.90;56.80;;;;;;5004409;28;20404;-67
2022/06/22 02:51:44;;;;;;;3.30;2.60;;;24.90;56.90;;;;;;5004220;28;20420;-67
2022/06/22 02:54:27;;;;;;;3.40;2.70;;;24.90;56.80;;;;;;5003082;28;20406;-67
2022/06/22 02:57:12;;;;;;;3.83;3.00;;;24.90;56.80;;;;;;5011808;28;20415;-66
2022/06/22 02:59:38;;;;;;;3.85;2.88;;;24.90;56.80;;;;;;5011738;28;20757;-63
2022/06/22 03:02:06;;;;;;;3.25;2.88;;;24.90;56.80;;;;;;4999347;28;20408;-65
2022/06/22 03:04:32;;;;;;;3.45;2.83;;;24.90;56.80;;;;;;4985536;28;20496;-65
2022/06/22 03:06:58;;;;;;;3.63;2.70;;;24.80;56.70;;;;;;5000570;28;20520;-63
2022/06/22 03:09:26;;;;;;;5.13;3.05;;;24.90;56.70;;;;;;5001628;28;20402;-63
2022/06/22 03:11:55;;;;;;;2.90;2.60;;;24.80;57.00;;;;;;5000548;28;20393;-63
2022/06/22 03:14:32;;;;;;;5.07;3.13;;;24.90;57.00;;;;;;4984639;28;20407;-64
2022/06/22 03:17:08;;;;;;;8.90;5.78;;;24.90;57.20;;;;;;5001115;28;20863;-65
2022/06/22 03:19:46;;;;;;;6.75;4.40;;;24.90;60.00;;;;;;5000881;28;20487;-63
2022/06/22 03:22:23;;;;;;;9.70;4.30;;;25.00;59.60;;;;;;4985019;28;20497;-66
2022/06/22 03:24:52;;;;;;;8.07;3.70;;;25.00;60.10;;;;;;5002528;28;20965;-66
2022/06/22 03:27:24;;;;;;;6.47;3.90;;;25.10;60.20;;;;;;4984221;28;20409;-66
2022/06/22 03:29:54;;;;;;;5.80;3.30;;;25.10;60.50;;;;;;5002203;28;20401;-67
2022/06/22 03:32:47;;;;;;;7.25;3.50;;;25.10;60.00;;;;;;5014390;28;20400;-63
2022/06/22 03:35:21;;;;;;;5.30;3.25;;;25.10;60.60;;;;;;4995003;28;20489;-63
2022/06/22 03:37:56;;;;;;;7.90;3.30;;;25.10;61.00;;;;;;5000527;28;20404;-63
2022/06/22 03:40:34;;;;;;;5.03;3.38;;;25.20;61.40;;;;;;5001201;28;20426;-63
2022/06/22 03:43:09;;;;;;;6.18;3.30;;;25.20;61.00;;;;;;4982903;28;20430;-64
2022/06/22 03:45:40;;;;;;;6.20;3.42;;;25.20;59.80;;;;;;4999718;28;20414;-64
2022/06/22 03:48:21;;;;;;;8.75;3.80;;;25.20;60.70;;;;;;5000623;28;20428;-67
2022/06/22 03:51:08;;;;;;;6.25;3.70;;;25.20;59.90;;;;;;5001557;28;20393;-66
2022/06/22 03:53:44;;;;;;;6.13;3.42;;;25.20;60.80;;;;;;5001713;28;20761;-66
2022/06/22 03:56:17;;;;;;;7.13;3.42;;;25.20;60.40;;;;;;5001627;28;20873;-65
2022/06/22 03:58:47;;;;;;;9.43;3.15;;;25.20;60.70;;;;;;5001595;28;20485;-66
2022/06/22 04:01:13;;;;;;;7.17;3.60;;;25.10;58.60;;;;;;5001508;28;20888;-65
2022/06/22 04:03:40;;;;;;;10.07;3.95;;;25.10;59.10;;;;;;5000115;28;20407;-67
2022/06/22 04:06:06;;;;;;;8.25;4.47;;;25.10;58.30;;;;;;5000348;28;20472;-67
2022/06/22 04:08:36;;;;;;;8.60;4.10;;;25.10;58.10;;;;;;5001778;28;20566;-67
2022/06/22 04:11:15;;;;;;;8.77;4.20;;;25.10;57.70;;;;;;4983624;28;20403;-67
2022/06/22 04:13:54;;;;;;;9.18;4.55;;;25.10;57.80;;;;;;4999903;28;20395;-67
2022/06/22 04:16:24;;;;;;;8.77;4.47;;;25.00;57.80;;;;;;4999597;28;20390;-67
2022/06/22 04:18:55;;;;;;;10.25;4.60;;;25.00;57.70;;;;;;5002192;28;20894;-66
2022/06/22 04:21:29;;;;;;;9.00;4.43;;;25.00;57.90;;;;;;4999101;28;20448;-67
2022/06/22 04:24:03;;;;;;;9.02;4.60;;;25.00;57.80;;;;;;4998916;28;20867;-67
2022/06/22 04:26:38;;;;;;;9.30;4.57;;;25.00;58.00;;;;;;4999220;28;20405;-66
2022/06/22 04:29:18;;;;;;;9.20;4.77;;;25.00;57.90;;;;;;5000807;28;20413;-67
2022/06/22 04:32:13;;;;;;;8.65;4.95;;;25.00;57.50;;;;;;4998874;28;20423;-64
2022/06/22 04:34:53;;;;;;;8.35;4.90;;;25.00;57.90;;;;;;4994929;28;20905;-66
2022/06/22 04:37:36;;;;;;;7.53;4.47;;;25.00;57.60;;;;;;4999585;28;20402;-66
2022/06/22 04:40:34;;;;;;;10.27;4.45;;;25.00;57.50;;;;;;4998798;28;20949;-63
2022/06/22 04:43:03;;;;;;;9.02;4.75;;;25.00;57.30;;;;;;4995900;28;20430;-65
2022/06/22 04:45:43;;;;;;;9.15;5.32;;;25.00;57.80;;;;;;5003238;28;20413;-66
2022/06/22 04:48:14;;;;;;;9.60;5.00;;;25.00;58.20;;;;;;5005177;28;20390;-65
2022/06/22 04:50:44;;;;;;;10.32;4.60;;;25.00;59.40;;;;;;5004059;28;20422;-64
2022/06/22 04:53:22;;;;;;;8.70;4.67;;;25.00;59.10;;;;;;5003388;28;20452;-67
2022/06/22 04:55:50;;;;;;;8.68;4.40;;;25.00;58.00;;;;;;4985780;28;20409;-63
2022/06/22 04:58:36;;;;;;;9.35;4.50;;;25.00;57.70;;;;;;4985595;28;20840;-67
2022/06/22 05:01:04;;;;;;;9.98;4.72;;;25.00;58.30;;;;;;4981389;28;20405;-67
2022/06/22 05:03:30;;;;;;;12.00;4.68;;;25.00;57.90;;;;;;5002648;28;20478;-64
2022/06/22 05:06:02;;;;;;;8.80;4.50;;;25.00;57.60;;;;;;5004815;28;20412;-64
2022/06/22 05:08:38;;;;;;;14.25;4.80;;;25.00;57.70;;;;;;5002100;28;20396;-64
2022/06/22 05:11:29;;;;;;;12.68;4.72;;;25.00;58.20;;;;;;5003605;28;20386;-64
2022/06/22 05:13:57;;;;;;;12.07;4.78;;;25.00;57.90;;;;;;4986898;28;20393;-64
2022/06/22 05:16:27;;;;;;;9.63;4.70;;;25.00;58.00;;;;;;5003698;28;20743;-65
2022/06/22 05:18:56;;;;;;;8.70;4.40;;;25.00;57.90;;;;;;5002819;28;20402;-64
2022/06/22 05:21:39;;;;;;;11.00;4.40;;;25.00;57.60;;;;;;5003826;28;20483;-68
2022/06/22 05:24:30;;;;;;;9.73;4.20;;;25.00;57.80;;;;;;5003586;28;20408;-64
2022/06/22 05:27:00;;;;;;;8.07;4.20;;;25.00;57.70;;;;;;5004157;28;20468;-63
2022/06/22 05:29:38;;;;;;;8.77;4.20;;;25.00;58.00;;;;;;5001326;28;20402;-63
2022/06/22 05:32:09;;;;;;;6.40;4.00;;;25.00;58.00;;;;;;5003334;28;20413;-65
2022/06/22 05:34:38;;;;;;;7.20;4.05;;;25.00;58.20;;;;;;5002207;28;20453;-65
2022/06/22 05:37:15;;;;;;;7.65;4.03;;;25.00;58.00;;;;;;4984787;28;20744;-64
2022/06/22 05:39:41;;;;;;;10.52;4.10;;;25.00;57.90;;;;;;5001418;28;21160;-64
2022/06/22 05:42:10;;;;;;;8.93;4.13;;;25.00;58.00;;;;;;5003476;28;20528;-63
2022/06/22 05:44:35;;;;;;;6.80;3.85;;;25.00;58.20;;;;;;5001652;28;20867;-64
2022/06/22 05:47:03;;;;;;;7.10;4.30;;;25.00;58.20;;;;;;5003178;28;20900;-64
2022/06/22 05:49:50;;;;;;;8.05;3.80;;;25.00;58.10;;;;;;5003403;28;20383;-64
2022/06/22 05:52:26;;;;;;;7.40;4.15;;;25.00;58.10;;;;;;5004128;28;20392;-63
2022/06/22 05:55:16;;;;;;;8.10;3.63;;;25.00;58.00;;;;;;5003094;28;20386;-63
2022/06/22 05:57:52;;;;;;;6.80;3.95;;;25.00;58.00;;;;;;5001346;28;20384;-67
2022/06/22 06:00:26;;;;;;;7.00;4.15;;;25.00;58.10;;;;;;5003624;28;20472;-66
2022/06/22 06:03:22;;;;;;;6.75;3.80;;;25.00;58.10;;;;;;5004007;28;20432;-66
2022/06/22 06:06:00;;;;;;;9.10;4.32;;;25.00;57.50;;;;;;5001520;28;20947;-67
2022/06/22 06:08:36;;;;;;;8.27;4.10;;;25.00;57.50;;;;;;5002883;28;20387;-63
2022/06/22 06:11:04;;;;;;;8.27;4.00;;;25.00;57.80;;;;;;5003939;28;20919;-64
2022/06/22 06:13:45;;;;;;;9.07;4.00;;;25.00;58.00;;;;;;5002995;28;20461;-65
2022/06/22 06:16:25;;;;;;;7.43;4.10;;;25.00;57.90;;;;;;5003473;28;20409;-66
2022/06/22 06:18:56;;;;;;;7.63;4.17;;;25.00;58.00;;;;;;5010814;28;20475;-63
2022/06/22 06:21:24;;;;;;;6.82;3.92;;;25.10;58.00;;;;;;5013526;28;20395;-64
2022/06/22 06:24:05;;;;;;;6.53;4.00;;;25.10;58.10;;;;;;5013463;28;20400;-63
2022/06/22 06:30:03;;;;;;;5.97;3.92;;;25.10;58.10;;;;;;4971663;28;20399;-63
2022/06/22 06:32:53;;;;;;;6.22;4.03;;;25.10;58.20;;;;;;5013489;28;20873;-67
2022/06/22 06:35:42;;;;;;;7.15;3.67;;;25.10;58.10;;;;;;4994377;28;20399;-66
2022/06/22 06:38:50;;;;;;;8.10;4.00;;;25.10;58.20;;;;;;4993744;28;20887;-67
2022/06/22 06:41:36;;;;;;;6.30;3.83;;;25.10;58.50;;;;;;4993790;28;20394;-67
2022/06/22 06:44:09;;;;;;;6.30;3.50;;;25.20;58.40;;;;;;4993538;28;20398;-67
2022/06/22 06:46:45;;;;;;;6.20;3.47;;;25.10;58.40;;;;;;4993691;28;20472;-66
2022/06/22 06:49:25;;;;;;;7.57;3.53;;;25.20;58.30;;;;;;4998497;28;20397;-66
2022/06/22 06:51:58;;;;;;;6.75;3.88;;;25.20;58.40;;;;;;4983637;28;20395;-63
2022/06/22 06:54:37;;;;;;;6.78;3.78;;;25.10;58.20;;;;;;5001508;28;20747;-67
2022/06/22 06:57:29;;;;;;;6.07;3.30;;;25.20;58.30;;;;;;5002337;28;20390;-66
2022/06/22 06:59:58;;;;;;;6.05;3.63;;;25.10;58.10;;;;;;4984602;28;20422;-67
2022/06/22 07:02:29;;;;;;;6.32;3.42;;;25.20;58.20;;;;;;4994069;28;20433;-66
2022/06/22 07:04:57;;;;;;;4.60;3.20;;;25.20;58.10;;;;;;4993464;28;20413;-66
2022/06/22 07:07:34;;;;;;;5.55;3.28;;;25.20;58.00;;;;;;4993168;28;20394;-66
2022/06/22 07:10:08;;;;;;;5.22;3.40;;;25.10;57.90;;;;;;4994530;28;20390;-67
2022/06/22 07:12:45;;;;;;;5.35;3.30;;;25.20;58.00;;;;;;4995004;28;20390;-66
2022/06/22 07:15:20;;;;;;;5.72;3.30;;;25.10;57.90;;;;;;4994186;28;20453;-67
2022/06/22 07:17:48;;;;;;;5.25;3.40;;;25.10;57.90;;;;;;4992381;28;20457;-67
2022/06/22 07:20:23;;;;;;;5.43;3.38;;;25.10;57.80;;;;;;4992586;28;20403;-66
2022/06/22 07:23:00;;;;;;;5.45;3.45;;;25.10;57.80;;;;;;4975457;28;20423;-66
2022/06/22 07:25:46;;;;;;;4.75;3.30;;;25.10;57.80;;;;;;4993444;28;20829;-62
2022/06/22 07:28:27;;;;;;;5.22;3.10;;;25.10;58.00;;;;;;4993117;28;20394;-66
2022/06/22 07:30:59;;;;;;;3.83;3.20;;;25.10;57.90;;;;;;4992945;28;20419;-66
2022/06/22 07:33:45;;;;;;;4.50;3.00;;;25.10;57.80;;;;;;4975064;28;20407;-66
2022/06/22 07:36:23;;;;;;;4.57;3.00;;;25.10;58.10;;;;;;4992756;28;20911;-64
2022/06/22 07:39:15;;;;;;;4.28;3.20;;;25.10;58.00;;;;;;4992747;28;20406;-67
2022/06/22 07:41:42;;;;;;;4.28;3.28;;;25.10;58.00;;;;;;4992305;28;20465;-66
2022/06/22 07:44:15;;;;;;;4.82;3.00;;;25.10;57.90;;;;;;4992292;28;20408;-67
2022/06/22 07:47:01;;;;;;;3.55;2.90;;;25.10;57.90;;;;;;4992638;28;20887;-67
2022/06/22 07:49:40;;;;;;;4.50;2.90;;;25.10;57.80;;;;;;4992097;28;20398;-66
2022/06/22 07:52:11;;;;;;;3.95;2.88;;;25.10;58.00;;;;;;4974840;28;20489;-66
2022/06/22 07:54:42;;;;;;;4.43;3.20;;;25.10;57.90;;;;;;4975040;28;20402;-66
2022/06/22 07:57:17;;;;;;;12.70;3.45;;;25.10;57.80;;;;;;4992446;28;20383;-66
2022/06/22 07:59:54;;;;;;;6.88;3.17;;;25.10;57.90;;;;;;4991970;28;20407;-66
2022/06/22 08:02:24;;;;;;;9.68;3.60;;;25.10;58.10;;;;;;4997448;28;20423;-67
2022/06/22 08:05:08;;;;;;;7.10;3.35;;;25.10;58.00;;;;;;4992498;28;20394;-66
2022/06/22 08:07:45;;;;;;;8.38;3.42;;;25.10;58.00;;;;;;5002830;28;20447;-66
2022/06/22 08:10:31;;;;;;;8.05;3.50;;;25.10;58.00;;;;;;4994134;28;20429;-66
2022/06/22 08:13:13;;;;;;;6.25;3.20;;;25.10;58.10;;;;;;5012069;28;20392;-66
2022/06/22 08:16:04;;;;;;;8.10;3.30;;;25.10;58.00;;;;;;5011543;28;20476;-66
2022/06/22 08:18:30;;;;;;;6.50;3.00;;;25.10;58.10;;;;;;5011828;28;20393;-66
2022/06/22 08:20:57;;;;;;;4.87;3.07;;;25.10;58.10;;;;;;5005961;28;20821;-67
2022/06/22 08:23:32;;;;;;;8.77;3.30;;;25.10;58.10;;;;;;4991929;28;20452;-67
2022/06/22 08:25:59;;;;;;;7.43;3.30;;;25.10;58.20;;;;;;4992277;28;20386;-66
2022/06/22 08:28:26;;;;;;;9.95;3.30;;;25.00;58.30;;;;;;4998720;28;20816;-66
2022/06/22 08:30:55;;;;;;;8.77;3.20;;;25.00;58.30;;;;;;4993996;28;20400;-67
2022/06/22 08:33:26;;;;;;;9.65;3.05;;;25.00;58.20;;;;;;5011569;28;20479;-67
2022/06/22 08:36:06;;;;;;;6.95;3.10;;;25.00;58.30;;;;;;5010825;28;20411;-67
2022/06/22 08:38:42;;;;;;;6.90;3.28;;;25.00;58.20;;;;;;5011549;28;20397;-66
2022/06/22 08:41:23;;;;;;;6.37;3.40;;;25.00;58.00;;;;;;5011418;28;20396;-66
2022/06/22 08:44:23;;;;;;;7.28;3.20;;;25.00;58.20;;;;;;5010905;28;20415;-67
2022/06/22 08:47:27;;;;;;;7.23;3.27;;;25.00;58.20;;;;;;5011308;28;20393;-66
2022/06/22 08:49:53;;;;;;;6.95;3.10;;;25.00;58.20;;;;;;4912392;29;20941;-66
2022/06/22 08:52:25;;;;;;;5.75;2.90;;;25.00;58.30;;;;;;4990999;28;20401;-67
2022/06/22 08:55:15;;;;;;;6.38;3.00;;;25.00;58.40;;;;;;5011594;28;20473;-67
2022/06/22 08:58:07;;;;;;;5.45;3.08;;;25.00;58.30;;;;;;5010988;28;20388;-66
2022/06/22 09:00:51;;;;;;;5.55;3.03;;;25.00;58.30;;;;;;4993776;28;20395;-66
2022/06/22 09:03:55;;;;;;;5.78;3.30;;;25.00;58.30;;;;;;4974413;28;20771;-67
2022/06/22 09:06:34;;;;;;;5.25;3.00;;;25.00;58.30;;;;;;4973354;28;20918;-67
2022/06/22 09:09:18;;;;;;;4.60;3.13;;;25.00;58.30;;;;;;4988139;28;20460;-67
2022/06/22 09:12:05;;;;;;;4.80;2.78;;;25.00;58.30;;;;;;5010779;28;20880;-67
2022/06/22 09:14:54;;;;;;;5.95;2.97;;;25.00;58.30;;;;;;5011265;28;20397;-67
2022/06/22 09:17:32;;;;;;;4.57;3.08;;;25.00;58.40;;;;;;5000372;28;20386;-66
2022/06/22 09:20:15;;;;;;;5.40;3.10;;;25.00;58.40;;;;;;4991339;28;20400;-67
2022/06/22 09:22:43;;;;;;;5.53;3.20;;;25.00;58.30;;;;;;4991551;28;20424;-66
2022/06/22 09:25:37;;;;;;;4.28;3.13;;;25.00;58.90;;;;;;4991500;28;20401;-67
2022/06/22 09:28:22;;;;;;;3.95;3.05;;;25.00;58.20;;;;;;4991238;28;20398;-67
2022/06/22 09:31:08;;;;;;;4.82;3.25;;;25.00;58.30;;;;;;4994360;28;20391;-67
2022/06/22 09:33:34;;;;;;;4.38;3.10;;;25.00;58.30;;;;;;4994892;28;20394;-66
2022/06/22 09:36:20;;;;;;;3.70;3.10;;;25.00;58.30;;;;;;4977719;28;20398;-67
2022/06/22 09:39:08;;;;;;;4.00;3.00;;;25.00;58.30;;;;;;4995217;28;20422;-67
2022/06/22 09:41:42;;;;;;;4.93;3.25;;;25.00;58.30;;;;;;4994590;28;20426;-67
2022/06/22 09:44:20;;;;;;;4.20;3.10;;;25.00;58.40;;;;;;4994644;28;20402;-66
2022/06/22 09:47:19;;;;;;;3.80;3.20;;;25.00;58.30;;;;;;4994926;28;20390;-66
2022/06/22 09:50:15;;;;;;;4.93;3.20;;;25.00;58.30;;;;;;4994322;28;20409;-66
2022/06/22 09:53:09;;;;;;;4.90;3.20;;;25.00;58.40;;;;;;4977180;28;20403;-66
2022/06/22 09:59:09;;;;;;;4.25;3.10;;;25.00;58.30;;;;;;4994562;28;20402;-66
2022/06/22 10:01:57;;;;;;;4.85;3.35;;;25.00;58.30;;;;;;4981168;28;20403;-63
2022/06/22 10:04:44;;;;;;;4.80;3.42;;;25.00;58.80;;;;;;5003805;28;20412;-66
2022/06/22 10:07:40;;;;;;;4.13;3.03;;;25.10;58.30;;;;;;4984273;28;20427;-66
2022/06/22 10:10:06;;;;;;;4.25;3.20;;;25.00;58.20;;;;;;5007855;28;20398;-67
2022/06/22 10:12:43;;;;;;;4.30;3.20;;;25.00;58.20;;;;;;4985748;28;20399;-66
2022/06/22 10:15:33;;;;;;;4.68;3.05;;;25.10;58.20;;;;;;4985038;28;20408;-67
2022/06/22 10:18:14;;;;;;;4.53;3.05;;;25.00;58.20;;;;;;5001916;28;20396;-67
2022/06/22 10:21:13;;;;;;;5.38;3.15;;;25.10;58.20;;;;;;5004511;28;20415;-66
2022/06/22 10:23:45;;;;;;;4.57;3.30;;;25.00;58.10;;;;;;4987051;28;20422;-66
2022/06/22 10:26:41;;;;;;;4.07;3.30;;;25.00;58.20;;;;;;4985881;28;20923;-66
2022/06/22 10:29:34;;;;;;;4.87;3.30;;;25.00;58.20;;;;;;5004501;28;20403;-67
2022/06/22 10:32:11;;;;;;;4.37;3.13;;;25.00;58.20;;;;;;5004380;28;20424;-67
2022/06/22 10:34:49;;;;;;;3.75;3.22;;;25.00;58.20;;;;;;5005843;28;20382;-67
2022/06/22 10:37:45;;;;;;;4.25;3.15;;;25.10;58.20;;;;;;5011419;28;20465;-66
2022/06/22 10:46:29;;;;;;;10.30;3.30;;;25.10;58.30;;;;;;4999338;28;20437;-67
2022/06/22 10:49:15;;;;;;;15.75;4.00;;;25.10;58.20;;;;;;5002372;28;20377;-68
2022/06/22 10:52:13;;;;;;;11.48;3.60;;;25.10;58.30;;;;;;5003306;28;20491;-68
2022/06/22 10:55:03;;;;;;;8.30;3.60;;;25.10;58.30;;;;;;4985169;28;20407;-68
2022/06/22 10:57:58;;;;;;;10.25;3.80;;;25.10;58.40;;;;;;4983432;28;20410;-67
2022/06/22 11:01:01;;;;;;;9.38;3.70;;;25.00;58.30;;;;;;4958274;28;20401;-66
2022/06/22 11:04:01;;;;;;;10.60;3.60;;;25.10;58.30;;;;;;5003072;28;20550;-66
2022/06/22 11:07:00;;;;;;;10.80;3.88;;;25.10;58.30;;;;;;5002530;28;21290;-67
2022/06/22 11:09:44;;;;;;;10.57;5.80;;;25.10;58.40;;;;;;5002643;28;20394;-67
2022/06/22 11:12:36;;;;;;;7.40;4.10;;;25.10;61.60;;;;;;5000734;28;20431;-69
2022/06/22 11:15:08;;;;;;;8.77;4.25;;;25.10;60.70;;;;;;5000197;28;20393;-67
2022/06/22 11:18:08;;;;;;;13.30;4.72;;;25.10;60.50;;;;;;4994970;28;20399;-66
2022/06/22 11:20:53;;;;;;;13.30;4.57;;;25.20;61.70;;;;;;4995684;28;20387;-64
2022/06/22 11:23:50;;;;;;;10.33;4.00;;;25.20;61.80;;;;;;4983530;28;20431;-67
2022/06/22 11:33:08;;;;;;;6.75;4.05;;;25.30;61.60;;;;;;5000266;28;20398;-67
2022/06/22 11:35:54;;;;;;;8.50;3.87;;;25.30;62.00;;;;;;4949628;28;20502;-65
2022/06/22 11:38:38;;;;;;;8.40;3.90;;;25.30;61.20;;;;;;5002122;28;20462;-66
2022/06/22 11:41:35;;;;;;;5.18;3.65;;;25.30;61.00;;;;;;4997342;28;20726;-66
2022/06/22 11:44:07;;;;;;;7.80;3.92;;;25.30;60.80;;;;;;4997103;28;20438;-65
2022/06/22 11:46:39;;;;;;;6.90;3.67;;;25.30;60.30;;;;;;5002034;28;20883;-65
2022/06/22 11:49:35;;;;;;;5.75;3.90;;;25.30;60.00;;;;;;4997323;28;20400;-65
2022/06/22 11:52:21;;;;;;;6.82;3.80;;;25.30;60.30;;;;;;4997519;28;20393;-66
2022/06/22 11:55:21;;;;;;;6.38;3.90;;;25.30;60.20;;;;;;5000573;28;20470;-66
2022/06/22 11:58:02;;;;;;;6.45;3.70;;;25.30;60.00;;;;;;4999322;28;20390;-66
2022/06/22 12:00:51;;;;;;;7.15;3.80;;;25.30;59.80;;;;;;4993935;28;20409;-67
2022/06/22 12:03:45;;;;;;;4.97;3.60;;;25.30;59.80;;;;;;4983512;28;20418;-67
2022/06/22 12:06:34;;;;;;;4.45;3.42;;;25.30;59.90;;;;;;4992586;28;20901;-67
2022/06/22 12:09:24;;;;;;;5.55;3.70;;;25.30;59.30;;;;;;4983618;28;20412;-66
2022/06/22 12:11:57;;;;;;;6.17;3.80;;;25.30;59.40;;;;;;5001049;28;20408;-65
2022/06/22 12:17:15;;;;;;;5.88;3.80;;;25.30;59.10;;;;;;4996954;28;20468;-65
2022/06/22 12:20:25;;;;;;;4.63;3.80;;;25.30;59.10;;;;;;5002011;28;20420;-66
2022/06/22 12:23:17;;;;;;;5.43;3.80;;;25.30;59.10;;;;;;4998457;28;20500;-66
2022/06/22 12:26:12;;;;;;;5.38;3.67;;;25.30;59.10;;;;;;5003653;28;20451;-66
2022/06/22 12:29:23;;;;;;;4.53;3.80;;;25.20;58.80;;;;;;5001353;28;20458;-66
2022/06/22 12:31:55;;;;;;;4.50;3.53;;;25.20;58.70;;;;;;5000773;28;20876;-67
2022/06/22 12:34:33;;;;;;;4.25;3.35;;;25.30;58.80;;;;;;5001633;28;20405;-66
2022/06/22 12:37:21;;;;;;;4.40;3.60;;;25.20;58.80;;;;;;4998625;28;21080;-66
2022/06/22 12:40:02;;;;;;;4.60;3.50;;;25.20;58.70;;;;;;4997417;28;20950;-66
2022/06/22 12:42:59;;;;;;;4.40;3.80;;;25.20;58.80;;;;;;4995589;28;20492;-66
2022/06/22 12:45:37;;;;;;;4.45;3.58;;;25.20;58.70;;;;;;4983878;28;20434;-66
2022/06/22 12:48:30;;;;;;;4.27;3.87;;;25.20;58.80;;;;;;4998437;28;20397;-66
2022/06/22 12:51:26;;;;;;;4.80;4.00;;;25.20;58.60;;;;;;4966675;28;20398;-67
2022/06/22 12:53:54;;;;;;;4.15;3.47;;;25.20;58.70;;;;;;5000341;28;20447;-67
2022/06/22 12:56:42;;;;;;;4.57;3.55;;;25.20;58.70;;;;;;5000700;28;20443;-67
2022/06/22 12:59:25;;;;;;;4.63;3.85;;;25.20;58.60;;;;;;4999496;28;20723;-66
2022/06/22 13:01:51;;;;;;;4.10;3.70;;;25.20;58.60;;;;;;5000237;28;20416;-66
2022/06/22 13:04:23;;;;;;;4.35;3.70;;;25.20;58.70;;;;;;5001021;28;20995;-67
2022/06/22 13:06:57;;;;;;;3.90;3.35;;;25.20;58.60;;;;;;5002267;28;20877;-67
2022/06/22 13:09:24;;;;;;;4.20;3.47;;;25.20;58.70;;;;;;5004518;28;20402;-67
2022/06/22 13:11:51;;;;;;;5.43;3.65;;;25.20;58.70;;;;;;5003809;28;20393;-66
2022/06/22 13:14:50;;;;;;;4.35;3.42;;;25.10;58.60;;;;;;4999221;28;20383;-67
2022/06/22 13:17:33;;;;;;;4.75;3.80;;;25.10;58.50;;;;;;5004700;28;20385;-66
2022/06/22 13:20:17;;;;;;;4.88;3.30;;;25.10;58.50;;;;;;5004089;28;20392;-67
2022/06/22 13:22:47;;;;;;;5.05;3.58;;;25.10;58.50;;;;;;4986940;28;20422;-66
2022/06/22 13:25:36;;;;;;;5.10;3.55;;;25.10;58.50;;;;;;5004302;28;20745;-66
2022/06/22 13:28:18;;;;;;;4.63;3.70;;;25.10;58.50;;;;;;5001384;28;20400;-66
2022/06/22 13:30:57;;;;;;;3.60;3.28;;;25.10;58.50;;;;;;4982012;28;20478;-66
2022/06/22 13:33:40;;;;;;;4.05;3.60;;;25.10;58.50;;;;;;4981998;28;20405;-67
2022/06/22 13:36:31;;;;;;;4.22;3.78;;;25.10;58.40;;;;;;4998500;28;20398;-65
2022/06/22 13:38:59;;;;;;;3.95;3.55;;;25.10;58.50;;;;;;4983951;28;20905;-67
2022/06/22 13:41:37;;;;;;;4.03;3.60;;;25.10;58.50;;;;;;5001261;28;20410;-66
2022/06/22 13:44:41;;;;;;;4.30;3.80;;;25.10;58.50;;;;;;4998627;28;20417;-65
2022/06/22 13:47:27;;;;;;;4.25;3.60;;;25.10;58.50;;;;;;4986390;28;20392;-66
2022/06/22 13:50:30;;;;;;;4.35;3.70;;;25.10;58.50;;;;;;5003411;28;20389;-67
2022/06/22 13:53:41;;;;;;;3.90;3.50;;;25.10;58.60;;;;;;4989423;28;20520;-67
2022/06/22 13:56:21;;;;;;;3.80;3.40;;;25.10;58.50;;;;;;5001261;28;20464;-66
2022/06/22 13:58:51;;;;;;;4.07;3.67;;;25.10;58.40;;;;;;5001113;28;20472;-66
2022/06/22 14:01:23;;;;;;;3.95;3.50;;;25.10;58.50;;;;;;5003594;28;20730;-67
2022/06/22 14:04:00;;;;;;;4.57;3.50;;;25.10;58.50;;;;;;5003404;28;20420;-67
2022/06/22 14:06:29;;;;;;;4.88;3.65;;;25.10;58.30;;;;;;5003355;28;20423;-66
2022/06/22 14:09:33;;;;;;;4.20;3.40;;;25.10;58.40;;;;;;4999952;28;20410;-67
2022/06/22 14:12:15;;;;;;;4.18;3.63;;;25.10;58.40;;;;;;5002430;28;20417;-66
2022/06/22 14:15:13;;;;;;;4.00;3.38;;;25.10;58.40;;;;;;5001576;28;20496;-67
2022/06/22 14:17:48;;;;;;;4.13;3.40;;;25.10;58.30;;;;;;5001107;28;20864;-66
2022/06/22 14:20:28;;;;;;;4.55;3.40;;;25.10;58.30;;;;;;5002159;28;20431;-65